フォルタレザ の空港の天気 - METARとTAF

フォルタレザ/ピント・マーティンズ国際空港 ( SBFZ / FOR ) - ブラジル セアラー州フォルタレザ
飛行場実況気象(Metar)
観測時間04/21 14:00 BRT (04/21 17:00 UTC)
風向・風速南東 4m/s
視程10km以上
天気現象
全天の8割程度の雲 雲底高度 700m
気温30℃
湿度70%
気圧1009hPa
METARSBFZ 211700Z 13008KT 100V160 9999 BKN023 30/24 Q1009
過去の天気等 Google飛行場航空写真 Wunderground天気予報

過去48時間のMETAR

飛行場予報(TAF)
発表時間: 4/21 07:00 BRT (4/21 10:00 UTC)
予報対象時間: 21日9時 BRT ~ 22日9時 BRT
風向・風速東 3m/s
視程10km以上
全天の4割程度の雲 雲底高度 610m
少しの塔状積雲 雲底高度 760m
21日18時 BRT ~ 21日20時 BRT に徐々に
視程10km以上
なし
21日22時 BRT ~ 21日24時 BRT に徐々に
視程10km以上
全天の4割程度の雲 雲底高度 520m
22日3時 BRT ~ 22日5時 BRT に徐々に
風向・風速南東 3m/s
全天の4割程度の雲 雲底高度 610m
TAF SBFZ 211000Z 2112/2212 09005KT 9999 SCT020 FEW025TCU TX30/2115Z T N25/2207Z
BECMG 2121/2123 CAVOK
BECMG 2201/2203 9999 SCT017
BECMG 2206/2208 14005KT SCT020 RMK PFN